Time;durP1;ratioP1;P1;durP2;ratioP2;P2;SDS_P1;SDS_P2;PMS_P1;PMS_P2;Temp;Humidity;BMP_temperature;BMP_pressure;BME280_temperature;BME280_humidity;BME280_pressure;Samples;Min_cycle;Max_cycle;Signal;HPM_P1;HPM_P2
2022/01/25 00:26:24;;;;;;;;;76.00;58.00;;;;;2.40;82.64;102346.44;5060314;28;45695;-67
2022/01/25 00:29:06;;;;;;;;;80.33;61.00;;;;;2.40;82.26;102341.25;5062778;28;45504;-68
2022/01/25 00:31:33;;;;;;;;;73.75;56.25;;;;;2.39;82.77;102350.78;5062918;28;45292;-68
2022/01/25 00:33:59;;;;;;;;;77.00;58.00;;;;;2.36;82.69;102355.00;5064005;28;45265;-68
2022/01/25 00:36:26;;;;;;;;;76.33;58.67;;;;;2.34;83.31;102349.81;5047267;28;46618;-68
2022/01/25 00:38:53;;;;;;;;;70.75;54.00;;;;;2.33;83.06;102348.03;5065579;28;45431;-68
2022/01/25 00:41:19;;;;;;;;;73.25;53.50;;;;;2.33;83.00;102351.50;5029632;28;45335;-71
2022/01/25 00:43:45;;;;;;;;;75.00;57.33;;;;;2.34;82.89;102353.25;5052856;28;45301;-66
2022/01/25 00:46:12;;;;;;;;;75.33;55.67;;;;;2.31;82.65;102348.00;5065261;28;46847;-67
2022/01/25 00:56:19;;;;;;;;;80.00;60.00;;;;;2.23;82.81;102344.34;5067242;28;45338;-66
2022/01/25 00:58:44;;;;;;;;;78.33;60.67;;;;;2.21;83.46;102350.38;5061820;28;45403;-69
2022/01/25 01:01:10;;;;;;;;;80.67;61.33;;;;;2.22;82.66;102354.72;5065226;28;45706;-68
2022/01/25 01:03:35;;;;;;;;;84.33;62.67;;;;;2.20;82.68;102341.69;5072236;28;45308;-69
2022/01/25 01:06:02;;;;;;;;;78.33;59.33;;;;;2.17;82.54;102342.50;5073729;28;45324;-65
2022/01/25 01:08:27;;;;;;;;;74.33;54.33;;;;;1.70;83.37;102265.28;5068020;28;45326;-69
2022/01/25 01:10:53;;;;;;;;;80.33;60.67;;;;;2.11;82.47;102334.53;5063171;28;45333;-67
2022/01/25 01:13:51;;;;;;;;;78.00;58.67;;;;;2.12;82.72;102340.63;5063564;28;45276;-71
2022/01/25 01:35:44;;;;;;;;;86.67;64.67;;;;;1.68;82.17;102349.09;5065088;28;45427;-69
2022/01/25 01:40:24;;;;;;;;;81.67;62.67;;;;;1.58;82.83;102348.84;5062829;28;45340;-67
2022/01/25 01:45:47;;;;;;;;;84.67;62.33;;;;;1.50;83.08;102355.56;5047151;28;45350;-63
2022/01/25 01:48:27;;;;;;;;;79.00;60.00;;;;;1.45;83.31;102354.56;5061858;28;46268;-68
2022/01/25 01:50:53;;;;;;;;;76.33;59.00;;;;;1.41;83.37;102350.13;5061488;28;45228;-69
2022/01/25 01:53:19;;;;;;;;;80.67;61.67;;;;;1.33;82.95;102349.06;5062550;28;45432;-64
2022/01/25 01:55:44;;;;;;;;;86.67;63.00;;;;;1.28;83.40;102348.91;5062527;28;45555;-71
2022/01/25 01:58:10;;;;;;;;;85.00;62.00;;;;;1.20;83.41;102346.13;5062534;28;45213;-68
2022/01/25 02:00:42;;;;;;;;;80.33;61.00;;;;;1.23;83.91;102356.59;5060465;28;45393;-68
2022/01/25 02:03:07;;;;;;;;;83.33;61.00;;;;;1.23;83.56;102360.88;5064282;28;45408;-70
2022/01/25 02:05:34;;;;;;;;;77.33;57.00;;;;;1.19;83.77;102362.53;5061630;28;45245;-69
2022/01/25 02:08:00;;;;;;;;;69.33;55.00;;;;;1.13;83.91;102364.94;5061203;28;46132;-71
2022/01/25 02:10:26;;;;;;;;;81.00;61.00;;;;;1.05;83.99;102356.06;5062425;28;45244;-69
2022/01/25 02:12:52;;;;;;;;;79.00;58.67;;;;;1.04;84.05;102362.97;5061377;28;45477;-72
2022/01/25 02:15:20;;;;;;;;;79.67;57.33;;;;;0.99;84.47;102357.63;5062064;28;45421;-73
2022/01/25 02:17:59;;;;;;;;;75.33;58.00;;;;;1.01;84.40;102362.88;5062045;28;47231;-71
2022/01/25 02:23:18;;;;;;;;;81.67;62.00;;;;;0.93;84.51;102361.78;5044950;28;45265;-67
2022/01/25 02:25:48;;;;;;;;;79.67;55.33;;;;;0.93;85.01;102359.19;5060640;28;45581;-70
2022/01/25 02:28:14;;;;;;;;;76.67;59.33;;;;;0.93;85.13;102365.25;5063611;28;45548;-72
2022/01/25 02:30:40;;;;;;;;;78.00;59.00;;;;;0.93;85.14;102360.06;5065065;28;45281;-70
2022/01/25 02:33:06;;;;;;;;;77.67;58.00;;;;;0.95;85.02;102365.28;5062235;28;45363;-70
2022/01/25 02:35:31;;;;;;;;;75.33;58.00;;;;;0.97;85.18;102364.50;5063810;28;45519;-67
2022/01/25 02:37:57;;;;;;;;;76.67;60.00;;;;;0.99;85.25;102365.41;5067669;28;45380;-66
2022/01/25 02:40:22;;;;;;;;;77.25;55.50;;;;;1.02;85.26;102362.91;5043076;28;45382;-66
2022/01/25 02:42:49;;;;;;;;;68.75;54.50;;;;;1.04;84.67;102365.56;5060111;28;45418;-64
2022/01/25 02:45:16;;;;;;;;;77.25;57.50;;;;;1.04;85.02;102359.47;5059724;28;45239;-66
2022/01/25 02:50:26;;;;;;;;;68.75;52.25;;;;;1.08;84.70;102359.63;5060367;28;45356;-67
2022/01/25 02:52:52;;;;;;;;;70.50;54.00;;;;;1.11;84.98;102366.63;5059448;28;45324;-67
2022/01/25 02:55:20;;;;;;;;;74.00;55.00;;;;;1.10;84.87;102362.28;5059203;28;45293;-71
2022/01/25 02:57:46;;;;;;;;;76.00;54.50;;;;;1.12;84.71;102358.00;5040708;28;46829;-68
2022/01/25 03:00:13;;;;;;;;;70.75;53.25;;;;;1.17;84.68;102367.66;5040984;28;45350;-70
2022/01/25 03:02:38;;;;;;;;;67.00;51.00;;;;;1.18;83.92;102368.53;5058885;28;45453;-66
2022/01/25 03:05:05;;;;;;;;;67.00;50.50;;;;;1.21;84.42;102363.44;5041783;28;45379;-67
2022/01/25 03:07:30;;;;;;;;;71.25;53.50;;;;;1.15;84.38;102351.19;5058645;28;46101;-63
2022/01/25 03:09:58;;;;;;;;;66.25;52.00;;;;;1.20;84.62;102369.47;5059350;28;45358;-67
2022/01/25 03:12:33;;;;;;;;;74.75;54.50;;;;;1.17;84.47;102361.59;5060969;28;45412;-69
2022/01/25 03:15:22;;;;;;;;;71.75;54.50;;;;;1.19;84.74;102374.59;5062419;28;45305;-69
2022/01/25 03:17:54;;;;;;;;;68.75;53.75;;;;;0.87;84.51;102321.91;5058460;28;45474;-69
2022/01/25 03:20:23;;;;;;;;;70.00;52.00;;;;;1.13;84.58;102365.81;5058160;28;45414;-66
2022/01/25 03:25:21;;;;;;;;;72.75;52.75;;;;;0.89;84.84;102326.25;5058454;28;45418;-67
2022/01/25 03:27:47;;;;;;;;;60.75;50.00;;;;;1.07;84.94;102352.69;5059106;28;45697;-70
2022/01/25 03:30:12;;;;;;;;;76.00;53.50;;;;;1.14;85.30;102356.34;5058737;28;45814;-68
2022/01/25 03:32:37;;;;;;;;;68.25;50.75;;;;;1.13;85.13;102349.41;5058480;28;45182;-70
2022/01/25 03:35:03;;;;;;;;;74.50;53.75;;;;;1.16;85.09;102352.94;5058965;28;45546;-69
2022/01/25 03:37:29;;;;;;;;;66.00;50.50;;;;;1.01;84.98;102322.28;5059902;28;47682;-69
2022/01/25 03:39:54;;;;;;;;;74.50;54.50;;;;;1.21;84.72;102342.72;5061854;28;45320;-70
2022/01/25 03:42:20;;;;;;;;;66.75;51.00;;;;;1.25;84.98;102349.72;5068538;28;45190;-71
2022/01/25 03:44:45;;;;;;;;;70.00;52.50;;;;;1.26;84.69;102345.41;5042570;28;45534;-68
2022/01/25 03:47:16;;;;;;;;;70.00;51.50;;;;;1.28;84.94;102342.03;5058393;28;46027;-71
2022/01/25 03:49:53;;;;;;;;;66.00;49.50;;;;;1.30;84.58;102329.09;5058285;28;45262;-70
2022/01/25 03:52:24;;;;;;;;;61.25;46.75;;;;;1.35;84.69;102324.03;5058320;28;45280;-69
2022/01/25 03:54:50;;;;;;;;;70.75;50.25;;;;;1.37;84.97;102320.63;5058499;28;45352;-66
2022/01/25 03:57:17;;;;;;;;;67.75;51.75;;;;;1.39;84.66;102324.16;5058483;28;45499;-70
2022/01/25 03:59:43;;;;;;;;;58.75;48.00;;;;;1.42;84.31;102328.53;5041287;28;45274;-67
2022/01/25 04:02:10;;;;;;;;;65.25;47.50;;;;;1.36;84.81;102326.66;5062974;28;45362;-66
2022/01/25 04:04:35;;;;;;;;;57.75;42.00;;;;;1.28;84.51;102310.91;5058944;28;45172;-69
2022/01/25 04:07:08;;;;;;;;;65.00;49.00;;;;;1.34;84.61;102337.84;5057656;28;46461;-69
2022/01/25 04:09:34;;;;;;;;;62.75;51.00;;;;;1.26;84.83;102333.34;5057520;28;45410;-65
2022/01/25 04:12:01;;;;;;;;;60.50;47.25;;;;;1.16;84.62;102324.41;5057808;28;45238;-63
2022/01/25 04:14:27;;;;;;;;;72.75;52.75;;;;;1.19;85.00;102338.28;5057310;28;45384;-65
2022/01/25 04:17:03;;;;;;;;;77.67;57.33;;;;;0.99;84.87;102302.34;5056833;28;45323;-65
2022/01/25 04:19:42;;;;;;;;;68.25;51.25;;;;;1.16;85.10;102332.19;5057652;28;45323;-66
2022/01/25 04:27:23;;;;;;;;;62.25;46.50;;;;;1.34;84.78;102348.22;5057413;28;45969;-66
2022/01/25 04:29:48;;;;;;;;;66.00;48.75;;;;;1.39;84.52;102349.22;5057051;28;45354;-64
2022/01/25 04:32:14;;;;;;;;;66.50;49.50;;;;;1.43;84.93;102348.47;5057461;28;44706;-64
2022/01/25 04:34:44;;;;;;;;;67.50;49.50;;;;;1.51;84.70;102351.22;5059118;28;45340;-65
2022/01/25 04:53:28;;;;;;;;;56.50;40.25;;;;;1.84;83.67;102366.78;5057103;28;45391;-66
2022/01/25 04:56:01;;;;;;;;;61.50;49.25;;;;;1.89;83.32;102360.00;5057389;28;45396;-66
2022/01/25 04:58:39;;;;;;;;;62.00;47.50;;;;;1.92;83.80;102361.81;5057994;28;46180;-65
2022/01/25 05:01:04;;;;;;;;;63.25;48.00;;;;;1.91;82.88;102352.25;5026071;28;45236;-65
2022/01/25 05:03:46;;;;;;;;;64.50;47.00;;;;;1.88;83.38;102353.03;5067328;28;45162;-61
2022/01/25 05:06:15;;;;;;;;;68.00;49.00;;;;;1.77;83.31;102353.63;5045406;28;45308;-60
2022/01/25 05:08:46;;;;;;;;;64.00;50.50;;;;;1.66;83.38;102355.94;5057294;28;46183;-64
2022/01/25 05:13:53;;;;;;;;;60.25;46.75;;;;;1.51;83.27;102353.81;5061213;28;45198;-61
2022/01/25 05:16:31;;;;;;;;;67.50;48.25;;;;;1.42;83.80;102359.66;5060070;28;45402;-67
2022/01/25 05:19:21;;;;;;;;;64.25;48.75;;;;;1.35;84.41;102360.34;5041562;28;46343;-65
2022/01/25 05:24:40;;;;;;;;;64.25;48.00;;;;;1.29;84.49;102355.84;5061160;28;45351;-68
2022/01/25 05:27:08;;;;;;;;;56.50;45.00;;;;;1.27;84.38;102355.84;5061152;28;45313;-65
2022/01/25 05:29:33;;;;;;;;;61.50;47.75;;;;;1.24;84.69;102367.81;5059918;28;45629;-63
2022/01/25 05:31:59;;;;;;;;;60.00;45.25;;;;;1.22;84.73;102360.00;5060144;28;45370;-62
2022/01/25 05:34:24;;;;;;;;;67.75;49.50;;;;;1.21;85.12;102362.53;5061149;28;45346;-63
2022/01/25 05:36:52;;;;;;;;;66.25;48.75;;;;;1.18;84.82;102358.19;5059726;28;45517;-61
2022/01/25 05:39:31;;;;;;;;;67.25;50.50;;;;;1.14;85.02;102353.75;5059887;28;45260;-62
2022/01/25 05:42:03;;;;;;;;;62.50;49.00;;;;;1.18;85.57;102363.34;5060084;28;45335;-63
2022/01/25 05:47:05;;;;;;;;;60.25;49.00;;;;;1.19;85.00;102369.41;5059569;28;45373;-62
2022/01/25 05:49:36;;;;;;;;;55.75;44.00;;;;;1.16;85.64;102370.22;5059171;28;45450;-63
2022/01/25 05:52:08;;;;;;;;;62.00;47.00;;;;;1.15;85.32;102365.88;5061050;28;45326;-63
2022/01/25 05:54:33;;;;;;;;;59.25;46.25;;;;;1.16;85.56;102365.91;5049024;28;45343;-66
2022/01/25 05:56:59;;;;;;;;;64.25;47.00;;;;;1.16;85.57;102365.03;5069813;28;45434;-65
2022/01/25 05:59:24;;;;;;;;;64.75;49.50;;;;;1.18;85.83;102360.75;5063544;28;46020;-66
2022/01/25 06:01:50;;;;;;;;;61.00;45.50;;;;;1.21;85.73;102365.13;5067724;28;45490;-68
2022/01/25 06:04:15;;;;;;;;;58.50;47.75;;;;;1.20;85.31;102361.69;5044270;28;45395;-64
2022/01/25 06:06:41;;;;;;;;;66.50;51.75;;;;;1.20;85.81;102366.88;5063092;28;44755;-66
2022/01/25 06:09:07;;;;;;;;;60.75;46.75;;;;;1.19;85.44;102364.22;5061928;28;45736;-61
2022/01/25 06:11:33;;;;;;;;;65.00;49.00;;;;;1.21;85.77;102363.44;5058370;28;45331;-66
2022/01/25 06:13:59;;;;;;;;;61.75;48.50;;;;;1.20;86.10;102356.50;5059463;28;45278;-66
2022/01/25 06:16:28;;;;;;;;;64.25;47.75;;;;;1.26;85.89;102363.56;5058818;28;45543;-62
2022/01/25 06:18:54;;;;;;;;;64.75;48.00;;;;;1.27;85.62;102362.72;5042693;28;46085;-67
2022/01/25 06:21:19;;;;;;;;;59.75;44.50;;;;;1.25;86.17;102360.09;5060909;28;45296;-65
2022/01/25 06:23:44;;;;;;;;;72.00;51.00;;;;;1.29;86.07;102355.84;5058146;28;45371;-63
2022/01/25 06:26:10;;;;;;;;;61.00;48.50;;;;;1.28;85.42;102362.78;5059221;28;45225;-60
2022/01/25 06:28:35;;;;;;;;;61.25;48.25;;;;;1.23;86.62;102361.78;5059351;28;46107;-63
2022/01/25 06:31:01;;;;;;;;;69.00;48.25;;;;;1.24;85.75;102357.44;5059771;28;45458;-63
2022/01/25 06:33:26;;;;;;;;;68.50;51.50;;;;;1.35;86.07;102363.78;5060561;28;45915;-65
2022/01/25 06:35:52;;;;;;;;;65.75;48.75;;;;;1.34;86.22;102359.44;5062817;28;45233;-64
2022/01/25 06:38:17;;;;;;;;;65.50;47.75;;;;;1.45;86.51;102367.53;5042475;28;47130;-63
2022/01/25 06:40:42;;;;;;;;;63.75;49.25;;;;;1.44;85.77;102358.84;5059777;28;45212;-63
2022/01/25 06:43:08;;;;;;;;;51.25;45.00;;;;;1.49;85.74;102358.09;5060455;28;45214;-64
2022/01/25 06:45:38;;;;;;;;;63.00;46.25;;;;;1.43;85.79;102338.94;5057663;28;45265;-64
2022/01/25 06:48:04;;;;;;;;;67.25;48.25;;;;;1.54;86.03;102354.81;5057048;28;45923;-60
2022/01/25 06:50:29;;;;;;;;;64.50;49.25;;;;;1.54;85.81;102349.59;5057355;28;45318;-61
2022/01/25 06:52:55;;;;;;;;;65.50;50.00;;;;;1.57;86.14;102357.47;5057843;28;45387;-62
2022/01/25 06:55:20;;;;;;;;;67.00;50.50;;;;;1.58;86.00;102354.03;5058738;28;45268;-63
2022/01/25 06:57:46;;;;;;;;;65.50;48.00;;;;;1.59;85.67;102360.09;5040108;28;46998;-62
2022/01/25 07:00:19;;;;;;;;;67.00;50.75;;;;;1.51;85.16;102348.63;5057855;28;45314;-63
2022/01/25 07:02:45;;;;;;;;;64.00;47.75;;;;;1.53;85.22;102366.00;5061377;28;45294;-63
2022/01/25 07:05:12;;;;;;;;;59.75;48.50;;;;;1.48;84.93;102359.81;5042943;28;45409;-62
2022/01/25 07:07:37;;;;;;;;;61.75;49.00;;;;;1.47;86.09;102360.66;5060614;28;45246;-62
2022/01/25 07:10:05;;;;;;;;;66.50;52.00;;;;;1.49;85.69;102363.28;5039867;28;46099;-61
2022/01/25 07:12:30;;;;;;;;;69.00;47.50;;;;;1.49;86.12;102368.47;5057015;28;45241;-63
2022/01/25 07:14:55;;;;;;;;;63.75;49.00;;;;;1.51;86.26;102370.28;5055985;28;45651;-62
2022/01/25 07:17:21;;;;;;;;;79.25;60.25;;;;;1.53;86.28;102354.75;5056683;28;46364;-64
2022/01/25 07:19:46;;;;;;;;;66.00;50.50;;;;;1.54;85.64;102360.00;5058743;28;45431;-65
2022/01/25 07:22:11;;;;;;;;;61.00;48.50;;;;;1.56;85.57;102360.91;5059001;28;45373;-75
2022/01/25 07:24:37;;;;;;;;;60.25;46.00;;;;;1.60;85.98;102367.06;5059789;28;45313;-68
2022/01/25 07:27:03;;;;;;;;;69.00;50.50;;;;;1.63;85.33;102376.63;5058701;28;47234;-64
2022/01/25 07:29:28;;;;;;;;;67.25;48.50;;;;;1.66;86.21;102376.69;5057569;28;45448;-64
2022/01/25 07:31:55;;;;;;;;;65.25;51.25;;;;;1.69;86.30;102380.28;5058388;28;45354;-66
2022/01/25 07:34:21;;;;;;;;;69.50;51.00;;;;;1.73;86.44;102382.09;5040163;28;45497;-68
2022/01/25 07:36:46;;;;;;;;;71.00;51.25;;;;;1.74;86.35;102383.84;5057179;28;45407;-68
2022/01/25 07:39:12;;;;;;;;;74.00;55.00;;;;;1.76;85.73;102389.06;5058298;28;45265;-69
2022/01/25 07:41:38;;;;;;;;;70.50;52.25;;;;;1.77;85.99;102380.44;5039395;28;45411;-67
2022/01/25 07:44:04;;;;;;;;;67.75;51.50;;;;;1.79;85.64;102390.88;5058950;28;45366;-67
2022/01/25 07:46:29;;;;;;;;;70.00;51.50;;;;;1.82;85.98;102386.63;5039299;28;46982;-63
2022/01/25 07:48:55;;;;;;;;;71.25;53.00;;;;;1.86;85.67;102385.00;5055437;28;45440;-65
2022/01/25 07:51:21;;;;;;;;;74.75;54.25;;;;;1.93;85.79;102392.09;5056120;28;45415;-62
2022/01/25 07:53:47;;;;;;;;;71.50;52.75;;;;;1.97;85.97;102398.22;5060365;28;45529;-66
2022/01/25 07:56:12;;;;;;;;;70.25;53.50;;;;;2.03;86.15;102395.78;5054340;28;46332;-63
2022/01/25 07:58:37;;;;;;;;;74.50;54.50;;;;;2.14;86.15;102394.34;5053431;28;45585;-65
2022/01/25 08:01:04;;;;;;;;;69.25;51.25;;;;;2.19;85.39;102400.53;5055652;28;45292;-65
2022/01/25 08:03:29;;;;;;;;;72.75;51.75;;;;;2.28;85.00;102397.25;5055596;28;45569;-65
2022/01/25 08:05:55;;;;;;;;;74.25;56.25;;;;;2.31;85.22;102392.16;5054599;28;45495;-63
2022/01/25 08:08:21;;;;;;;;;81.50;54.00;;;;;2.45;85.08;102397.66;5055259;28;45370;-65
2022/01/25 08:10:46;;;;;;;;;61.50;49.75;;;;;2.56;84.78;102407.41;5056595;28;45469;-67
2022/01/25 08:13:12;;;;;;;;;68.75;53.50;;;;;2.63;84.46;102411.91;5055760;28;45265;-69
2022/01/25 08:15:37;;;;;;;;;71.50;51.75;;;;;2.70;84.11;102406.00;5055975;28;45252;-64
2022/01/25 08:18:04;;;;;;;;;74.50;57.00;;;;;2.73;83.97;102394.81;5061727;28;45757;-68
2022/01/25 08:20:29;;;;;;;;;63.75;48.50;;;;;2.87;84.93;102402.88;5054485;28;45702;-69
2022/01/25 08:22:55;;;;;;;;;70.25;51.25;;;;;2.93;84.51;102400.41;5068916;28;46007;-62
2022/01/25 08:25:20;;;;;;;;;71.50;54.00;;;;;2.99;83.77;102408.34;5074027;27;46293;-64
2022/01/25 08:27:47;;;;;;;;;73.00;54.50;;;;;3.07;83.71;102421.53;5059653;28;45339;-68
2022/01/25 08:30:14;;;;;;;;;75.50;55.50;;;;;3.15;83.63;102419.06;5064415;28;45481;-63
2022/01/25 08:32:39;;;;;;;;;64.75;50.00;;;;;3.19;82.83;102418.31;5059702;28;45572;-64
2022/01/25 08:35:05;;;;;;;;;68.00;50.50;;;;;3.20;83.14;102400.13;5060989;28;46307;-64
2022/01/25 08:37:31;;;;;;;;;67.50;48.00;;;;;3.30;83.32;102409.00;5073219;28;45495;-65
2022/01/25 08:39:56;;;;;;;;;56.25;43.25;;;;;3.43;82.67;102424.84;5059332;28;45450;-65
2022/01/25 08:42:22;;;;;;;;;72.50;54.75;;;;;3.45;82.24;102417.94;5055726;28;45465;-65
2022/01/25 08:44:47;;;;;;;;;63.25;49.50;;;;;3.52;81.98;102409.41;5067536;28;46255;-65
2022/01/25 08:47:13;;;;;;;;;71.25;51.25;;;;;3.54;82.03;102410.31;5056490;28;45434;-64
2022/01/25 08:49:39;;;;;;;;;70.00;52.75;;;;;3.59;82.28;102411.25;5063374;28;45407;-64
2022/01/25 08:52:06;;;;;;;;;63.00;50.00;;;;;3.63;81.43;102415.66;5072349;28;45747;-64
2022/01/25 08:54:33;;;;;;;;;71.50;52.00;;;;;3.61;81.27;102395.66;5069779;28;45374;-65
2022/01/25 08:56:59;;;;;;;;;68.50;52.25;;;;;3.72;81.82;102412.38;5065288;28;45518;-69
2022/01/25 08:59:25;;;;;;;;;76.50;57.00;;;;;3.76;81.43;102415.88;5075096;27;45374;-64
2022/01/25 09:01:50;;;;;;;;;69.75;54.00;;;;;3.85;80.64;102415.19;5065751;28;45497;-66
2022/01/25 09:04:16;;;;;;;;;75.75;55.00;;;;;3.75;81.04;102396.81;5054153;28;47171;-64
2022/01/25 09:06:41;;;;;;;;;69.25;50.50;;;;;3.85;80.37;102416.06;5052123;27;45457;-65
2022/01/25 09:09:09;;;;;;;;;63.75;51.50;;;;;3.93;80.35;102429.22;5061925;28;45441;-62
2022/01/25 09:11:40;;;;;;;;;65.50;51.25;;;;;3.96;80.14;102418.84;5074006;28;45557;-64
2022/01/25 09:14:06;;;;;;;;;69.00;50.50;;;;;3.99;80.02;102421.50;5064288;28;45244;-62
2022/01/25 09:16:35;;;;;;;;;72.75;54.25;;;;;4.02;80.04;102421.56;5049268;28;45213;-63
2022/01/25 09:19:01;;;;;;;;;67.75;51.25;;;;;4.06;80.47;102422.47;5075820;28;45397;-65
2022/01/25 09:21:27;;;;;;;;;75.00;55.25;;;;;4.09;79.53;102418.19;5064058;28;45638;-62
2022/01/25 09:23:53;;;;;;;;;78.75;57.25;;;;;4.12;80.03;102429.53;5073188;27;45504;-64
2022/01/25 09:26:20;;;;;;;;;69.00;52.50;;;;;4.13;79.67;102434.75;5069771;28;45371;-63
2022/01/25 09:28:45;;;;;;;;;72.25;54.00;;;;;4.19;79.75;102428.78;5065872;28;45483;-62
2022/01/25 09:31:11;;;;;;;;;82.00;61.00;;;;;4.23;79.38;102428.81;5074161;28;45628;-66
2022/01/25 09:33:36;;;;;;;;;77.50;57.00;;;;;4.29;79.06;102435.88;5059180;28;46060;-65
2022/01/25 09:36:03;;;;;;;;;69.50;51.50;;;;;4.32;78.88;102433.31;5063507;27;45402;-66
2022/01/25 09:38:28;;;;;;;;;72.25;56.75;;;;;4.39;78.87;102436.91;5063760;28;45374;-65
2022/01/25 09:40:53;;;;;;;;;74.25;54.75;;;;;4.45;78.58;102439.59;5047170;28;45550;-66
2022/01/25 09:43:20;;;;;;;;;73.75;54.50;;;;;4.45;78.46;102441.31;5068803;28;45439;-64
2022/01/25 09:45:47;;;;;;;;;64.75;52.25;;;;;4.50;77.81;102437.06;5083484;28;45405;-67
2022/01/25 09:48:14;;;;;;;;;64.25;49.25;;;;;4.51;77.91;102439.69;5067816;28;45478;-65
2022/01/25 09:50:40;;;;;;;;;74.25;53.25;;;;;4.55;77.47;102437.13;5067368;28;45566;-61
2022/01/25 09:53:06;;;;;;;;;74.75;54.25;;;;;4.58;77.74;102445.00;5071734;28;45479;-67
2022/01/25 09:55:35;;;;;;;;;70.75;53.25;;;;;4.60;77.67;102438.09;5071110;27;45553;-69
2022/01/25 09:58:02;;;;;;;;;68.50;49.50;;;;;4.63;77.59;102438.13;5066016;28;45340;-67
2022/01/25 10:00:31;;;;;;;;;73.00;54.00;;;;;4.69;77.32;102443.44;5080343;28;45428;-66
2022/01/25 10:05:45;;;;;;;;;68.50;52.50;;;;;4.73;76.81;102442.63;5077770;28;45491;-64
2022/01/25 10:08:24;;;;;;;;;73.50;50.50;;;;;4.75;76.59;102451.34;5055758;28;45465;-69
2022/01/25 10:10:55;;;;;;;;;68.00;52.75;;;;;4.79;76.50;102440.09;5071064;28;45512;-63
2022/01/25 10:13:55;;;;;;;;;67.50;50.75;;;;;4.81;76.33;102440.13;5051616;27;46374;-66
2022/01/25 10:16:33;;;;;;;;;68.00;52.25;;;;;4.85;76.45;102434.09;5051195;28;45423;-63
2022/01/25 10:19:10;;;;;;;;;73.50;54.50;;;;;4.93;76.32;102444.63;5063314;27;45271;-65
2022/01/25 10:21:48;;;;;;;;;72.75;55.00;;;;;4.83;76.21;102412.34;5074358;28;45480;-67
2022/01/25 10:24:17;;;;;;;;;67.50;51.50;;;;;5.00;75.48;102450.81;5060250;28;47146;-72
2022/01/25 10:26:53;;;;;;;;;68.50;52.50;;;;;4.95;75.33;102454.22;5067204;27;45391;-63
2022/01/25 10:29:21;;;;;;;;;69.50;52.75;;;;;4.95;75.49;102455.94;5067428;28;45379;-70
2022/01/25 10:31:49;;;;;;;;;72.75;53.00;;;;;5.02;75.90;102456.91;5060581;28;45369;-70
2022/01/25 10:34:20;;;;;;;;;64.00;49.00;;;;;5.04;75.06;102461.28;5076314;28;45466;-67
2022/01/25 10:36:49;;;;;;;;;74.25;55.25;;;;;5.08;75.51;102457.84;5075868;28;45446;-65
2022/01/25 10:39:21;;;;;;;;;69.00;52.00;;;;;5.11;75.32;102462.25;5078759;28;45466;-67
2022/01/25 10:41:47;;;;;;;;;73.25;54.50;;;;;5.14;75.00;102459.69;5079015;27;45452;-64
2022/01/25 10:44:12;;;;;;;;;68.00;52.50;;;;;5.14;75.11;102451.84;5078501;28;45370;-65
2022/01/25 10:46:38;;;;;;;;;71.25;54.00;;;;;5.21;75.25;102458.91;5070677;28;45412;-71
2022/01/25 10:49:10;;;;;;;;;69.75;52.00;;;;;5.26;74.43;102456.34;5057492;28;45418;-67
2022/01/25 10:51:42;;;;;;;;;68.50;52.50;;;;;5.28;75.14;102458.97;5057699;28;45562;-68
2022/01/25 10:54:17;;;;;;;;;70.25;54.00;;;;;5.29;74.10;102461.59;5065259;28;45638;-72
2022/01/25 10:56:46;;;;;;;;;71.75;52.25;;;;;5.32;74.55;102452.94;5077473;28;45362;-69
2022/01/25 10:59:16;;;;;;;;;75.50;57.25;;;;;5.35;74.65;102446.03;5064807;28;45409;-67
2022/01/25 11:01:56;;;;;;;;;70.00;52.75;;;;;5.39;74.25;102445.22;5041005;28;45539;-69
2022/01/25 11:04:25;;;;;;;;;67.50;50.25;;;;;5.50;73.89;102454.91;5052824;28;45437;-75
2022/01/25 11:07:00;;;;;;;;;68.75;51.50;;;;;5.35;73.13;102409.50;5056605;28;45436;-70
2022/01/25 11:09:27;;;;;;;;;68.25;51.00;;;;;5.59;73.01;102439.34;5055767;28;45438;-79
2022/01/25 11:11:57;;;;;;;;;70.50;53.25;;;;;5.39;72.72;102411.28;5056567;28;45505;-71
2022/01/25 11:17:07;;;;;;;;;74.33;56.33;;;;;5.62;73.25;102438.47;5057352;28;45291;-71
2022/01/25 11:19:33;;;;;;;;;70.00;52.00;;;;;5.67;72.62;102445.50;5056975;28;45376;-68
2022/01/25 11:21:59;;;;;;;;;75.25;54.25;;;;;5.69;72.13;102451.63;5043880;28;45652;-69
2022/01/25 11:24:26;;;;;;;;;70.75;52.25;;;;;5.73;72.00;102444.66;5055481;28;46492;-72
2022/01/25 11:26:53;;;;;;;;;69.00;51.50;;;;;5.80;72.10;102448.25;5055374;28;45381;-69
2022/01/25 11:29:19;;;;;;;;;66.50;52.25;;;;;5.84;71.64;102440.47;5056848;28;45439;-60
2022/01/25 11:31:51;;;;;;;;;75.25;56.50;;;;;5.88;72.07;102441.34;5056372;28;45486;-62
2022/01/25 11:34:18;;;;;;;;;72.00;53.75;;;;;5.83;71.86;102430.88;5056019;28;47013;-61
2022/01/25 11:36:58;;;;;;;;;71.00;52.50;;;;;5.95;71.75;102450.13;5056307;28;45224;-63
2022/01/25 11:39:27;;;;;;;;;85.67;69.33;;;;;5.92;70.69;102445.75;5076965;28;45846;-63
2022/01/25 11:42:05;;;;;;;;;76.00;56.00;;;;;5.92;71.57;102447.50;5076453;28;44807;-62
2022/01/25 11:44:31;;;;;;;;;71.00;51.00;;;;;5.95;71.74;102448.38;5059858;28;46451;-62
2022/01/25 11:47:06;;;;;;;;;69.50;53.50;;;;;5.95;71.34;102443.16;5059518;28;45438;-66
2022/01/25 11:49:32;;;;;;;;;78.75;57.50;;;;;5.96;71.35;102444.91;5055989;28;45491;-65
2022/01/25 11:52:12;;;;;;;;;77.75;58.50;;;;;6.01;71.79;102444.09;5056014;28;45423;-65
2022/01/25 11:54:40;;;;;;;;;72.50;54.50;;;;;6.02;70.99;102438.91;5045619;28;47448;-72
2022/01/25 11:57:13;;;;;;;;;70.25;53.00;;;;;6.02;71.41;102443.25;5055335;28;45341;-64
2022/01/25 11:59:40;;;;;;;;;73.00;54.75;;;;;6.02;71.51;102436.28;5039833;28;45316;-70
2022/01/25 12:02:05;;;;;;;;;63.25;45.25;;;;;6.04;70.95;102428.44;5055985;28;45757;-63
2022/01/25 12:04:31;;;;;;;;;71.00;53.50;;;;;6.12;71.45;102434.63;5053406;28;47135;-62
2022/01/25 12:07:08;;;;;;;;;71.50;52.50;;;;;6.18;71.44;102437.28;5035408;28;45506;-75
2022/01/25 12:09:47;;;;;;;;;72.75;54.00;;;;;6.27;70.29;102428.66;5054960;28;45486;-71
2022/01/25 12:12:14;;;;;;;;;64.00;50.75;;;;;6.28;70.53;102435.63;5056973;28;45235;-76
2022/01/25 12:14:47;;;;;;;;;73.00;53.75;;;;;6.26;69.46;102438.22;5057159;28;46026;-67
2022/01/25 12:17:33;;;;;;;;;70.25;50.00;;;;;6.24;70.66;102431.25;5058702;28;45358;-68
2022/01/25 12:20:02;;;;;;;;;74.00;54.50;;;;;6.25;69.49;102426.00;5052968;28;45817;-68
2022/01/25 12:22:39;;;;;;;;;70.50;53.50;;;;;6.31;69.95;102426.91;5037102;28;45495;-68
2022/01/25 12:25:27;;;;;;;;;73.25;53.00;;;;;6.30;69.97;102413.00;5055309;28;45464;-74
2022/01/25 12:27:58;;;;;;;;;73.00;54.25;;;;;6.39;69.69;102413.06;5030450;28;45261;-71
2022/01/25 12:30:26;;;;;;;;;75.25;55.25;;;;;6.39;69.46;102412.19;5054261;28;45480;-71
2022/01/25 12:33:03;;;;;;;;;71.50;54.25;;;;;6.37;69.03;102398.25;5058895;28;45595;-63
2022/01/25 12:35:37;;;;;;;;;76.00;52.25;;;;;6.47;68.96;102400.03;5038608;28;47358;-66
2022/01/25 12:38:07;;;;;;;;;73.75;54.25;;;;;6.49;68.55;102406.16;5054499;28;45341;-68
2022/01/25 12:40:36;;;;;;;;;70.00;54.00;;;;;6.52;68.32;102402.66;5054221;28;45489;-67
2022/01/25 12:43:14;;;;;;;;;72.25;53.75;;;;;6.54;68.87;102406.16;5060457;28;45513;-66
2022/01/25 12:45:45;;;;;;;;;75.25;55.25;;;;;6.50;68.36;102399.19;5059487;28;46529;-68
2022/01/25 12:48:18;;;;;;;;;68.25;53.25;;;;;6.40;67.69;102395.66;5036556;28;45506;-66
2022/01/25 12:50:47;;;;;;;;;73.75;53.75;;;;;6.29;67.59;102403.41;5036351;28;45471;-69
2022/01/25 12:53:19;;;;;;;;;78.00;57.33;;;;;6.18;69.26;102386.78;5055256;28;45417;-66
2022/01/25 12:55:50;;;;;;;;;75.25;54.75;;;;;6.18;67.97;102392.00;5054379;28;46169;-67
2022/01/25 12:58:17;;;;;;;;;74.25;54.75;;;;;6.13;68.87;102397.19;5042472;28;45422;-68
2022/01/25 13:00:46;;;;;;;;;70.25;53.00;;;;;6.21;68.46;102397.25;5032573;28;46624;-68
2022/01/25 13:03:39;;;;;;;;;71.25;54.50;;;;;6.23;68.79;102391.16;5053554;28;45941;-72